Time;durP1;ratioP1;P1;durP2;ratioP2;P2;SDS_P1;SDS_P2;PMS_P1;PMS_P2;Temp;Humidity;BMP_temperature;BMP_pressure;BME280_temperature;BME280_humidity;BME280_pressure;Samples;Min_cycle;Max_cycle;Signal;HPM_P1;HPM_P2
2021/06/03 00:00:31;;;;;;;4.15;3.75;;;;;;;14.57;58.73;95689.72;4971847;28;20042;-68
2021/06/03 00:02:57;;;;;;;4.65;3.53;;;;;;;14.48;58.45;95680.91;4971777;28;20114;-68
2021/06/03 00:05:31;;;;;;;5.13;3.60;;;;;;;14.53;58.23;95696.81;4972345;28;20109;-68
2021/06/03 00:07:57;;;;;;;4.93;3.47;;;;;;;14.54;58.66;95693.06;4971252;28;20035;-67
2021/06/03 00:10:28;;;;;;;5.32;3.90;;;;;;;14.53;58.44;95691.47;4972046;28;20764;-68
2021/06/03 00:12:55;;;;;;;4.93;4.18;;;;;;;14.56;58.29;95704.22;4974440;28;20053;-68
2021/06/03 00:15:21;;;;;;;3.95;3.65;;;;;;;14.53;58.50;95691.47;4971544;28;20518;-68
2021/06/03 00:17:46;;;;;;;4.63;4.00;;;;;;;14.56;58.56;95695.41;4973604;28;20039;-68
2021/06/03 00:20:15;;;;;;;3.70;3.10;;;;;;;14.59;58.21;95696.66;4971545;28;20050;-66
2021/06/03 00:22:41;;;;;;;4.13;3.72;;;;;;;14.57;58.11;95700.44;4971188;28;20069;-67
2021/06/03 00:25:07;;;;;;;6.43;4.50;;;;;;;14.59;58.08;95702.00;4971454;28;20493;-67
2021/06/03 00:27:32;;;;;;;4.18;3.83;;;;;;;14.48;57.79;95688.94;4974141;28;20423;-67
2021/06/03 00:29:58;;;;;;;4.30;3.90;;;;;;;14.50;57.68;95699.34;4969883;28;20030;-67
2021/06/03 00:32:23;;;;;;;5.68;3.45;;;;;;;14.54;56.90;95708.34;4973009;28;20450;-67
2021/06/03 00:34:49;;;;;;;4.00;3.70;;;;;;;14.43;56.25;95691.75;4971303;28;20050;-67
2021/06/03 00:37:14;;;;;;;3.50;3.20;;;;;;;14.44;56.56;95700.59;4971485;28;20031;-67
2021/06/03 00:39:39;;;;;;;5.68;3.33;;;;;;;14.52;56.79;95705.16;4971219;28;20043;-67
2021/06/03 00:42:05;;;;;;;3.45;3.15;;;;;;;14.41;56.74;95712.69;4973095;28;20038;-67
2021/06/03 00:44:30;;;;;;;3.67;3.00;;;;;;;14.02;56.82;95706.34;4972511;28;20026;-67
2021/06/03 00:46:56;;;;;;;3.65;3.35;;;;;;;14.13;57.20;95711.41;4971151;28;20042;-67
2021/06/03 00:49:21;;;;;;;3.65;3.33;;;;;;;14.09;57.81;95726.50;4970989;28;20077;-67
2021/06/03 00:51:46;;;;;;;4.60;4.18;;;;;;;14.20;57.37;95738.47;4969874;28;20095;-67
2021/06/03 00:54:12;;;;;;;4.78;3.55;;;;;;;14.21;57.13;95751.53;4970492;28;20034;-68
2021/06/03 00:56:38;;;;;;;4.28;3.95;;;;;;;13.87;58.29;95714.81;4973301;28;20031;-68
2021/06/03 00:59:04;;;;;;;5.20;4.20;;;;;;;14.13;57.85;95738.16;4971491;28;20046;-68
2021/06/03 01:01:30;;;;;;;4.53;3.70;;;;;;;14.02;57.33;95722.41;4970799;28;20035;-68
2021/06/03 01:03:58;;;;;;;5.13;3.75;;;;;;;14.04;57.66;95730.91;4970910;28;20039;-68
2021/06/03 01:06:24;;;;;;;3.88;3.35;;;;;;;13.96;58.02;95723.63;4971324;28;20022;-68
2021/06/03 01:08:58;;;;;;;6.47;3.65;;;;;;;14.03;58.27;95740.03;4971218;28;20033;-63
2021/06/03 01:11:33;;;;;;;4.55;3.47;;;;;;;13.99;58.62;95744.41;4971507;28;20023;-68
2021/06/03 01:14:21;;;;;;;5.30;4.28;;;;;;;13.98;58.69;95752.75;4969953;28;20031;-68
2021/06/03 01:16:49;;;;;;;5.20;4.70;;;;;;;13.93;59.04;95745.66;4970720;28;20054;-68
2021/06/03 01:19:21;;;;;;;4.72;4.32;;;;;;;13.88;59.09;95748.47;4970675;28;20061;-68
2021/06/03 01:21:55;;;;;;;4.82;4.32;;;;;;;13.87;59.24;95754.94;4970553;28;20035;-68
2021/06/03 01:24:27;;;;;;;4.82;4.43;;;;;;;13.75;60.32;95746.69;4970065;28;20034;-67
2021/06/03 01:26:57;;;;;;;4.50;4.10;;;;;;;13.63;61.28;95763.31;4970789;28;20026;-67
2021/06/03 01:29:24;;;;;;;4.55;4.10;;;;;;;13.63;61.38;95759.84;4972194;28;20027;-67
2021/06/03 01:31:51;;;;;;;4.88;4.47;;;;;;;13.57;61.43;95761.09;4970563;28;20122;-67
2021/06/03 01:34:19;;;;;;;5.03;4.63;;;;;;;13.52;61.70;95765.47;4969933;28;20559;-67
2021/06/03 01:36:45;;;;;;;4.93;4.13;;;;;;;13.35;62.61;95761.91;5001673;28;20192;-67
2021/06/03 01:39:11;;;;;;;8.93;4.80;;;;;;;13.33;62.34;95764.88;4970331;28;20632;-67
2021/06/03 01:41:37;;;;;;;6.38;4.40;;;;;;;13.37;62.04;95752.50;4972216;28;20030;-67
2021/06/03 01:44:04;;;;;;;6.18;4.22;;;;;;;13.44;61.88;95757.38;4975219;28;20051;-67
2021/06/03 01:46:31;;;;;;;4.95;4.50;;;;;;;13.38;62.08;95772.78;4970248;28;20034;-67
2021/06/03 01:48:57;;;;;;;5.60;4.80;;;;;;;13.14;63.24;95750.91;4968814;28;20134;-67
2021/06/03 01:51:24;;;;;;;5.15;4.65;;;;;;;13.27;62.55;95763.44;4970165;28;20050;-67
2021/06/03 01:53:50;;;;;;;5.20;4.70;;;;;;;13.28;62.63;95765.00;4971513;28;20101;-68
2021/06/03 01:56:17;;;;;;;5.80;4.88;;;;;;;13.27;62.47;95756.22;4968890;28;20133;-67
2021/06/03 01:58:44;;;;;;;5.53;5.03;;;;;;;13.27;62.78;95761.56;4976425;28;20497;-67
2021/06/03 02:01:10;;;;;;;5.35;4.75;;;;;;;13.19;63.03;95748.09;4969726;28;20053;-67
2021/06/03 02:03:36;;;;;;;5.30;4.57;;;;;;;13.16;63.51;95754.06;4969746;28;20027;-67
2021/06/03 02:06:03;;;;;;;5.72;5.20;;;;;;;13.13;63.43;95770.69;4969819;28;20052;-67
2021/06/03 02:08:29;;;;;;;7.93;4.97;;;;;;;13.02;64.14;95760.25;4971689;28;20073;-67
2021/06/03 02:10:55;;;;;;;5.82;5.15;;;;;;;13.10;64.20;95773.97;4969530;28;20035;-68
2021/06/03 02:13:28;;;;;;;8.30;5.30;;;;;;;13.00;64.21;95767.78;4973373;28;20065;-68
2021/06/03 02:16:07;;;;;;;5.72;5.22;;;;;;;13.04;64.49;95775.19;4968423;28;20054;-68
2021/06/03 02:18:39;;;;;;;5.30;4.82;;;;;;;12.99;64.73;95771.53;4969803;28;20043;-67
2021/06/03 02:21:06;;;;;;;7.95;5.57;;;;;;;12.95;64.57;95778.59;4969803;28;20027;-67
2021/06/03 02:23:32;;;;;;;4.90;4.50;;;;;;;12.89;64.98;95766.44;4971271;28;20022;-68
2021/06/03 02:26:00;;;;;;;5.60;5.10;;;;;;;12.87;64.95;95771.28;4969499;28;20039;-67
2021/06/03 02:28:27;;;;;;;5.25;4.80;;;;;;;12.91;65.65;95782.97;4974871;28;20047;-67
2021/06/03 02:30:54;;;;;;;6.75;5.60;;;;;;;12.88;65.62;95782.75;4969488;28;20089;-67
2021/06/03 02:33:20;;;;;;;7.43;4.90;;;;;;;12.77;65.47;95774.19;4969071;28;20035;-67
2021/06/03 02:35:45;;;;;;;5.25;4.85;;;;;;;12.82;65.93;95784.75;4971418;28;20387;-67
2021/06/03 02:38:12;;;;;;;5.45;5.05;;;;;;;12.80;65.55;95788.84;4969612;28;20182;-67
2021/06/03 02:40:39;;;;;;;4.95;4.30;;;;;;;12.76;65.53;95783.31;4969553;28;20563;-67
2021/06/03 02:43:05;;;;;;;6.35;5.13;;;;;;;12.72;65.68;95795.66;4973887;28;20118;-67
2021/06/03 02:45:31;;;;;;;5.80;4.43;;;;;;;12.58;65.50;95771.69;4969294;28;20177;-68
2021/06/03 02:47:57;;;;;;;5.15;4.65;;;;;;;12.60;65.33;95782.06;4969060;28;20492;-67
2021/06/03 02:50:24;;;;;;;6.00;4.80;;;;;;;12.69;65.21;95794.41;4968909;28;20505;-67
2021/06/03 02:52:50;;;;;;;5.03;4.10;;;;;;;12.65;64.96;95789.97;4968474;28;20540;-67
2021/06/03 02:55:18;;;;;;;4.00;3.63;;;;;;;12.67;65.12;95796.56;4969250;28;20121;-67
2021/06/03 02:57:43;;;;;;;4.63;4.03;;;;;;;12.54;65.06;95783.25;4973450;28;20042;-67
2021/06/03 03:00:11;;;;;;;4.13;3.75;;;;;;;12.64;64.76;95801.72;4969239;28;20166;-67
2021/06/03 03:02:37;;;;;;;3.80;3.53;;;;;;;12.68;64.45;95813.38;4970771;28;20038;-67
2021/06/03 03:05:03;;;;;;;4.30;3.75;;;;;;;12.68;64.70;95811.47;4969088;28;20106;-67
2021/06/03 03:07:29;;;;;;;4.68;4.28;;;;;;;12.48;64.73;95771.91;4969350;28;20501;-67
2021/06/03 03:09:54;;;;;;;4.18;3.88;;;;;;;12.69;64.64;95801.59;4969157;28;20038;-67
2021/06/03 03:12:20;;;;;;;4.75;4.35;;;;;;;12.69;64.57;95809.59;4968961;28;20035;-67
2021/06/03 03:14:45;;;;;;;3.88;3.58;;;;;;;12.71;64.57;95810.09;4973938;28;20038;-69
2021/06/03 03:17:11;;;;;;;5.07;4.60;;;;;;;12.71;64.87;95805.56;4969087;28;20047;-67
2021/06/03 03:19:36;;;;;;;4.45;4.03;;;;;;;12.64;65.04;95796.38;4969591;28;20059;-67
2021/06/03 03:22:02;;;;;;;5.03;4.53;;;;;;;12.69;64.86;95799.75;4969284;28;20514;-67
2021/06/03 03:24:28;;;;;;;6.35;4.30;;;;;;;12.77;64.84;95814.25;4971616;28;20050;-67
2021/06/03 03:26:54;;;;;;;4.13;3.83;;;;;;;12.70;65.11;95795.97;4972287;28;20085;-67
2021/06/03 03:29:19;;;;;;;4.57;4.18;;;;;;;12.72;65.10;95799.13;4977187;28;20037;-68
2021/06/03 03:31:45;;;;;;;4.47;4.13;;;;;;;12.87;64.86;95813.22;4987031;28;20681;-67
2021/06/03 03:34:10;;;;;;;4.45;4.07;;;;;;;12.84;64.91;95809.28;4971922;28;20125;-67
2021/06/03 03:36:37;;;;;;;4.63;4.32;;;;;;;12.84;64.84;95789.78;4971484;28;20031;-68
2021/06/03 03:39:04;;;;;;;5.20;4.68;;;;;;;13.02;64.96;95792.31;4972475;28;20500;-67
2021/06/03 03:41:29;;;;;;;4.32;4.03;;;;;;;13.23;64.89;95807.88;4974516;28;20066;-67
2021/06/03 03:43:55;;;;;;;4.93;4.53;;;;;;;13.31;64.35;95799.16;4972940;28;20062;-67
2021/06/03 03:46:20;;;;;;;7.90;4.72;;;;;;;13.38;64.04;95799.50;4972024;28;20070;-68
2021/06/03 03:48:45;;;;;;;3.90;3.60;;;;;;;13.52;64.39;95810.91;4972041;28;20055;-67
2021/06/03 03:51:13;;;;;;;4.32;3.92;;;;;;;13.68;63.79;95827.34;4972206;28;20042;-67
2021/06/03 03:53:42;;;;;;;4.38;3.80;;;;;;;13.76;63.63;95831.13;5004900;28;20031;-67
2021/06/03 03:56:08;;;;;;;4.70;4.30;;;;;;;13.76;63.39;95812.44;4972039;28;20485;-68
2021/06/03 03:58:38;;;;;;;4.05;3.75;;;;;;;14.03;63.08;95828.28;4973117;28;20054;-68
2021/06/03 04:01:04;;;;;;;4.63;4.22;;;;;;;14.24;62.36;95823.19;4971688;28;20067;-69
2021/06/03 04:03:29;;;;;;;4.30;3.13;;;;;;;14.53;61.88;95822.63;4971482;28;20035;-68
2021/06/03 04:05:55;;;;;;;5.78;4.18;;;;;;;14.78;61.33;95834.50;4971983;28;20031;-68
2021/06/03 04:08:21;;;;;;;3.67;3.38;;;;;;;14.81;60.89;95827.75;4973864;28;20026;-68
2021/06/03 04:10:46;;;;;;;4.68;4.28;;;;;;;14.75;60.85;95831.66;4986913;28;20397;-68
2021/06/03 04:13:12;;;;;;;4.50;4.10;;;;;;;14.77;61.08;95842.84;4971894;28;20448;-68
2021/06/03 04:15:37;;;;;;;4.47;4.07;;;;;;;14.77;61.15;95838.28;4971650;28;20042;-69
2021/06/03 04:18:03;;;;;;;4.20;3.80;;;;;;;14.72;61.20;95818.91;5003074;28;20131;-68
2021/06/03 04:20:28;;;;;;;5.60;3.78;;;;;;;15.13;60.92;95834.53;4973587;28;20033;-68
2021/06/03 04:22:54;;;;;;;3.50;3.20;;;;;;;15.38;60.46;95816.06;4971342;28;20396;-68
2021/06/03 04:25:20;;;;;;;5.10;3.70;;;;;;;15.65;59.73;95833.69;5002457;28;20123;-69
2021/06/03 04:27:46;;;;;;;3.78;3.47;;;;;;;15.83;59.16;95835.25;4971362;28;20035;-69
2021/06/03 04:30:15;;;;;;;4.47;3.05;;;;;;;16.05;58.37;95828.84;4971260;28;20042;-68
2021/06/03 04:32:40;;;;;;;3.20;2.97;;;;;;;16.36;58.07;95833.94;4973045;28;20023;-69
2021/06/03 04:35:07;;;;;;;3.58;3.28;;;;;;;16.60;57.18;95830.66;4970754;28;20038;-68
2021/06/03 04:37:32;;;;;;;4.63;3.90;;;;;;;16.82;56.42;95826.91;4971306;28;20058;-68
2021/06/03 04:39:58;;;;;;;4.85;3.30;;;;;;;17.17;56.24;95850.84;4971289;28;20043;-68
2021/06/03 04:42:23;;;;;;;3.47;3.17;;;;;;;17.26;55.57;95830.06;4969614;28;20105;-68
2021/06/03 04:44:49;;;;;;;3.13;2.83;;;;;;;17.58;54.96;95837.34;4980388;28;20042;-68
2021/06/03 04:47:14;;;;;;;3.28;3.08;;;;;;;17.94;54.40;95852.06;4969940;28;20085;-69
2021/06/03 04:49:39;;;;;;;11.43;2.88;;;;;;;18.09;53.82;95834.47;4971197;28;20042;-69
2021/06/03 04:54:49;;;;;;;2.85;2.65;;;;;;;18.65;52.74;95835.50;4971283;28;20440;-69
2021/06/03 04:57:15;;;;;;;3.17;2.88;;;;;;;18.91;52.69;95848.63;4971111;28;20031;-69
2021/06/03 04:59:40;;;;;;;3.10;2.78;;;;;;;18.90;52.68;95841.66;4978417;28;20073;-68
2021/06/03 05:02:05;;;;;;;2.88;2.67;;;;;;;18.88;52.29;95841.22;4970796;28;20070;-68
2021/06/03 05:04:31;;;;;;;2.67;2.47;;;;;;;18.86;52.58;95840.00;4970553;28;20047;-68
2021/06/03 05:06:56;;;;;;;3.65;2.80;;;;;;;18.82;52.95;95856.03;4970918;28;20034;-68
2021/06/03 05:09:21;;;;;;;3.92;2.53;;;;;;;18.77;53.28;95850.09;4985665;28;20031;-69
2021/06/03 05:11:47;;;;;;;3.65;2.75;;;;;;;18.79;53.17;95843.25;4972625;28;20035;-69
2021/06/03 05:14:14;;;;;;;3.30;3.00;;;;;;;18.81;53.61;95854.47;4977112;28;20043;-69
2021/06/03 05:16:40;;;;;;;3.58;2.50;;;;;;;19.03;53.67;95860.50;4971022;28;20031;-68
2021/06/03 05:19:05;;;;;;;3.05;2.72;;;;;;;19.17;53.06;95861.72;4971485;28;20050;-69
2021/06/03 05:21:30;;;;;;;3.40;2.38;;;;;;;19.33;52.63;95864.47;4970880;28;20082;-69
2021/06/03 05:23:56;;;;;;;2.95;2.67;;;;;;;19.44;52.79;95856.69;4970162;28;20031;-69
2021/06/03 05:26:21;;;;;;;2.90;2.63;;;;;;;19.66;52.27;95863.50;4972381;28;20337;-69
2021/06/03 05:28:46;;;;;;;2.63;2.30;;;;;;;19.87;51.89;95866.00;4976218;28;20042;-68
2021/06/03 05:31:12;;;;;;;2.55;2.35;;;;;;;20.03;51.78;95861.41;4970522;28;20043;-69
2021/06/03 05:33:37;;;;;;;2.58;2.38;;;;;;;20.08;51.35;95844.16;4985099;28;20121;-69
2021/06/03 05:36:03;;;;;;;2.70;2.50;;;;;;;20.38;51.61;95864.22;4970380;28;20101;-69
2021/06/03 05:38:28;;;;;;;3.15;2.60;;;;;;;20.51;51.27;95857.59;4972274;28;20654;-69
2021/06/03 05:40:53;;;;;;;2.97;2.50;;;;;;;20.68;51.13;95858.38;4970224;28;20408;-69
2021/06/03 05:43:19;;;;;;;2.90;2.58;;;;;;;20.74;50.59;95848.84;4971650;28;20400;-69
2021/06/03 05:45:44;;;;;;;3.65;2.40;;;;;;;21.01;50.44;95869.56;4973418;28;20039;-69
2021/06/03 05:48:10;;;;;;;2.45;2.25;;;;;;;21.16;50.09;95875.28;4970121;28;20042;-69
2021/06/03 05:50:35;;;;;;;3.13;2.92;;;;;;;21.20;49.77;95868.03;4972078;28;20031;-69
2021/06/03 05:53:01;;;;;;;4.22;2.65;;;;;;;21.33;49.74;95880.31;4969631;28;20039;-69
2021/06/03 05:55:26;;;;;;;3.15;2.30;;;;;;;21.38;49.40;95884.66;4969878;28;20069;-69
2021/06/03 05:57:52;;;;;;;2.30;2.05;;;;;;;21.21;49.61;95889.31;4969892;28;20408;-69
2021/06/03 06:00:22;;;;;;;2.22;2.05;;;;;;;21.36;49.68;95885.00;4969525;28;20182;-69
2021/06/03 06:08:01;;;;;;;2.85;2.03;;;;;;;21.41;49.94;95884.75;4970061;28;20037;-69
2021/06/03 06:10:28;;;;;;;2.97;2.28;;;;;;;21.07;50.09;95885.50;4970030;28;20035;-69
2021/06/03 06:12:53;;;;;;;3.58;2.35;;;;;;;21.05;49.74;95885.88;4969591;28;20453;-69
2021/06/03 06:15:19;;;;;;;2.40;2.20;;;;;;;21.56;49.63;95902.06;4973903;28;20070;-70
2021/06/03 06:17:44;;;;;;;2.92;2.42;;;;;;;21.49;48.92;95891.84;4971773;28;20026;-69
2021/06/03 06:20:11;;;;;;;2.45;2.13;;;;;;;21.40;49.29;95898.63;4969907;28;20077;-69
2021/06/03 06:22:36;;;;;;;3.45;2.20;;;;;;;21.12;50.34;95894.13;4969328;28;20039;-69
2021/06/03 06:25:04;;;;;;;2.38;2.17;;;;;;;21.36;49.51;95905.88;4969652;28;20062;-69
2021/06/03 06:27:29;;;;;;;2.55;2.35;;;;;;;21.38;49.44;95890.06;4969821;28;20426;-69
2021/06/03 06:29:55;;;;;;;3.72;2.60;;;;;;;21.51;48.92;95916.66;5000460;28;20027;-68
2021/06/03 06:32:20;;;;;;;2.50;2.35;;;;;;;20.94;49.24;95901.06;4971143;28;20035;-70
2021/06/03 06:34:45;;;;;;;2.20;2.10;;;;;;;21.15;49.56;95896.13;4969773;28;20045;-70
2021/06/03 06:37:11;;;;;;;2.70;2.50;;;;;;;21.30;49.39;95913.50;4984800;28;20031;-69
2021/06/03 06:39:37;;;;;;;2.58;2.38;;;;;;;21.53;48.73;95905.47;4969919;28;20662;-68
2021/06/03 06:42:03;;;;;;;2.65;2.33;;;;;;;21.73;48.22;95907.03;4970257;28;20110;-69
2021/06/03 06:44:29;;;;;;;2.38;2.17;;;;;;;21.65;49.02;95909.94;4973256;28;20019;-69
2021/06/03 06:46:54;;;;;;;3.13;2.60;;;;;;;22.03;48.75;95920.00;4969573;28;20053;-69
2021/06/03 06:49:20;;;;;;;2.78;2.30;;;;;;;21.82;49.22;95922.28;4969629;28;20089;-69
2021/06/03 06:51:45;;;;;;;2.30;2.20;;;;;;;22.21;48.16;95910.28;4969480;28;20039;-69
2021/06/03 06:54:11;;;;;;;2.78;2.42;;;;;;;22.48;47.85;95921.22;4968945;28;20027;-70
2021/06/03 06:56:36;;;;;;;2.50;2.30;;;;;;;22.54;47.54;95927.91;4971167;28;20030;-70
2021/06/03 06:59:01;;;;;;;3.28;2.42;;;;;;;22.21;47.75;95904.06;4973659;28;20073;-70
2021/06/03 07:01:27;;;;;;;2.45;2.25;;;;;;;21.64;48.20;95932.75;4972896;28;20404;-70
2021/06/03 07:03:52;;;;;;;2.60;2.40;;;;;;;20.93;50.19;95916.50;4972627;28;20043;-69
2021/06/03 07:06:17;;;;;;;2.72;2.53;;;;;;;21.03;50.04;95926.00;4988022;28;20049;-70
2021/06/03 07:08:43;;;;;;;2.60;2.40;;;;;;;21.17;49.22;95926.31;4989574;28;20181;-69
2021/06/03 07:11:08;;;;;;;2.53;2.22;;;;;;;21.24;49.73;95940.03;4972962;28;20039;-69
2021/06/03 07:13:34;;;;;;;2.33;2.13;;;;;;;21.82;48.75;95909.53;4972161;28;20035;-70
2021/06/03 07:15:59;;;;;;;2.70;2.10;;;;;;;21.90;48.38;95923.97;4973778;28;20118;-70
2021/06/03 07:18:24;;;;;;;3.35;2.28;;;;;;;21.38;48.02;95931.44;4972823;28;20031;-69
2021/06/03 07:20:50;;;;;;;2.33;2.20;;;;;;;21.48;49.21;95943.63;4974614;28;20062;-70
2021/06/03 07:23:15;;;;;;;2.60;2.40;;;;;;;20.71;49.38;95922.53;4972296;28;20035;-70
2021/06/03 07:25:41;;;;;;;2.20;2.10;;;;;;;21.06;49.37;95924.50;4972867;28;20400;-69
2021/06/03 07:28:08;;;;;;;2.20;2.05;;;;;;;21.66;48.68;95933.97;4972892;28;20098;-69
2021/06/03 07:30:34;;;;;;;2.47;2.28;;;;;;;22.09;47.24;95929.38;5003291;28;20031;-68
2021/06/03 07:33:00;;;;;;;2.85;2.40;;;;;;;21.97;47.02;95927.63;4972141;28;20038;-69
2021/06/03 07:35:27;;;;;;;5.18;2.28;;;;;;;22.52;46.81;95924.75;4974338;28;20030;-68
2021/06/03 07:37:53;;;;;;;3.00;1.92;;;;;;;22.87;46.26;95927.25;4972549;28;20046;-69
2021/06/03 07:40:22;;;;;;;4.22;2.90;;;;;;;23.02;46.14;95925.59;5003802;28;20098;-68
2021/06/03 07:42:49;;;;;;;2.58;2.38;;;;;;;22.45;46.07;95927.34;4971917;28;20515;-68
2021/06/03 07:45:16;;;;;;;3.45;2.17;;;;;;;23.15;45.07;95926.19;4979615;28;20058;-69
2021/06/03 07:47:42;;;;;;;2.53;2.33;;;;;;;23.26;44.45;95925.19;4974094;28;20026;-70
2021/06/03 07:50:10;;;;;;;3.63;2.50;;;;;;;22.87;44.18;95932.69;4972350;28;20081;-69
2021/06/03 07:52:36;;;;;;;4.28;2.03;;;;;;;23.15;44.39;95921.53;4971898;28;20053;-69
2021/06/03 07:55:04;;;;;;;2.58;2.30;;;;;;;23.40;44.42;95915.69;4986868;28;20043;-68
2021/06/03 07:57:30;;;;;;;3.25;2.20;;;;;;;22.55;44.89;95867.09;4972627;28;20039;-66
2021/06/03 07:59:56;;;;;;;2.95;2.65;;;;;;;22.57;45.40;95925.25;4993805;28;20039;-73
2021/06/03 08:02:21;;;;;;;3.47;2.30;;;;;;;22.50;45.69;95925.13;4973449;28;20025;-69
2021/06/03 08:04:46;;;;;;;2.95;2.65;;;;;;;22.66;44.64;95935.06;4971929;28;20473;-66
2021/06/03 08:07:12;;;;;;;2.60;2.40;;;;;;;23.04;44.12;95923.31;4971839;28;20039;-68
2021/06/03 08:09:37;;;;;;;2.72;2.08;;;;;;;23.32;44.30;95926.41;4970484;28;20035;-68
2021/06/03 08:12:03;;;;;;;2.30;2.10;;;;;;;23.49;42.93;95922.41;5003088;28;20033;-68
2021/06/03 08:14:28;;;;;;;2.67;2.47;;;;;;;23.53;43.42;95925.13;4977086;28;20121;-67
2021/06/03 08:16:54;;;;;;;3.90;2.80;;;;;;;23.64;42.32;95920.66;4973744;28;20070;-69
2021/06/03 08:19:20;;;;;;;2.90;2.60;;;;;;;23.44;42.30;95911.06;4971557;28;20553;-68
2021/06/03 08:21:47;;;;;;;2.80;2.60;;;;;;;23.08;42.87;95916.78;4971747;28;20031;-67
2021/06/03 08:24:12;;;;;;;3.88;2.78;;;;;;;22.61;44.27;95900.13;4971124;28;20084;-68
2021/06/03 08:26:37;;;;;;;2.60;2.13;;;;;;;23.03;43.75;95921.72;4973187;28;20035;-68
2021/06/03 08:29:03;;;;;;;2.47;2.28;;;;;;;23.59;42.92;95919.00;4971461;28;20050;-68
2021/06/03 08:31:29;;;;;;;2.53;2.33;;;;;;;23.77;42.78;95911.13;4976764;28;20071;-67
2021/06/03 08:34:00;;;;;;;2.42;2.10;;;;;;;24.11;41.96;95919.28;4970758;28;20130;-68
2021/06/03 08:36:27;;;;;;;2.78;2.58;;;;;;;24.37;41.57;95919.19;4971562;28;20049;-68
2021/06/03 08:38:52;;;;;;;2.90;2.70;;;;;;;24.35;40.75;95926.09;4971264;28;20035;-68
2021/06/03 08:41:18;;;;;;;4.03;2.58;;;;;;;23.57;42.13;95910.47;4973079;28;20026;-68
2021/06/03 08:43:44;;;;;;;2.50;2.30;;;;;;;23.66;42.38;95929.22;4969437;28;20070;-69
2021/06/03 08:46:09;;;;;;;2.53;2.15;;;;;;;24.11;42.12;95908.41;4974856;28;20051;-70
2021/06/03 08:48:35;;;;;;;2.92;2.60;;;;;;;24.36;41.62;95906.75;4970864;28;20050;-68
2021/06/03 08:51:03;;;;;;;3.10;2.80;;;;;;;24.58;40.86;95915.09;4971098;28;20065;-71
2021/06/03 08:53:29;;;;;;;2.58;2.38;;;;;;;24.75;40.68;95928.06;4971111;28;20062;-65
2021/06/03 08:56:15;;;;;;;2.10;2.00;;;;;;;24.92;40.61;95914.97;4970988;28;20054;-66
2021/06/03 08:58:45;;;;;;;2.45;2.25;;;;;;;24.97;40.59;95922.78;4969676;28;20035;-68
2021/06/03 09:01:11;;;;;;;2.60;2.40;;;;;;;25.22;40.06;95929.22;4973307;28;20134;-69
2021/06/03 09:03:37;;;;;;;3.00;2.55;;;;;;;25.27;39.74;95928.84;4969885;28;20038;-67
2021/06/03 09:06:03;;;;;;;2.60;2.40;;;;;;;25.29;38.91;95926.56;4969355;28;20546;-68
2021/06/03 09:08:33;;;;;;;3.30;2.65;;;;;;;25.21;38.90;95916.75;4973171;28;20032;-72
2021/06/03 09:11:18;;;;;;;2.53;2.33;;;;;;;25.46;38.83;95925.09;4971555;28;20057;-69
2021/06/03 09:13:50;;;;;;;2.58;2.20;;;;;;;25.50;38.37;95922.38;5001846;28;20035;-67
2021/06/03 09:16:29;;;;;;;3.80;2.25;;;;;;;25.46;37.31;95908.75;4974412;28;20512;-66
2021/06/03 09:19:06;;;;;;;2.85;2.65;;;;;;;25.54;37.02;95912.25;4970655;28;20058;-66
2021/06/03 09:21:39;;;;;;;2.47;2.38;;;;;;;25.33;36.82;95908.25;5001374;28;20125;-64
2021/06/03 09:24:12;;;;;;;2.88;2.47;;;;;;;25.39;37.65;95914.94;4970125;28;20053;-66
2021/06/03 09:26:55;;;;;;;2.78;2.10;;;;;;;25.24;38.33;95902.41;4972303;28;20101;-66
2021/06/03 09:29:28;;;;;;;2.35;2.25;;;;;;;25.41;37.76;95912.59;4972511;28;20043;-68
2021/06/03 09:32:05;;;;;;;5.15;2.22;;;;;;;25.50;37.29;95912.25;4971442;28;20043;-67
2021/06/03 09:34:31;;;;;;;2.75;2.55;;;;;;;24.33;39.32;95906.69;4969965;28;20090;-67
2021/06/03 09:36:59;;;;;;;3.40;2.25;;;;;;;24.72;39.74;95917.13;4970225;28;20533;-64
2021/06/03 09:39:28;;;;;;;2.15;2.03;;;;;;;24.65;39.04;95898.81;4970353;28;20039;-65
2021/06/03 09:41:54;;;;;;;2.88;2.67;;;;;;;25.08;38.44;95904.59;4970213;28;20506;-67
2021/06/03 09:44:47;;;;;;;5.10;2.40;;;;;;;25.27;38.18;95907.06;4986435;28;20019;-68
2021/06/03 09:47:20;;;;;;;3.95;2.40;;;;;;;25.50;38.07;95908.75;4959833;28;20054;-65
2021/06/03 09:50:07;;;;;;;2.50;2.30;;;;;;;25.67;38.29;95906.09;4967724;28;20639;-67
2021/06/03 09:52:35;;;;;;;2.97;2.60;;;;;;;25.23;38.89;95900.03;4969500;28;20049;-66
2021/06/03 09:55:05;;;;;;;4.25;3.92;;;;;;;24.56;38.95;95843.97;4969126;28;20053;-60
2021/06/03 09:57:34;;;;;;;19.58;17.70;;;;;;;25.44;38.62;95894.72;4969076;28;20046;-67
2021/06/03 10:00:09;;;;;;;292.55;237.05;;;;;;;25.65;39.69;95905.72;4972324;28;20472;-64
2021/06/03 10:02:36;;;;;;;146.60;113.65;;;;;;;25.92;38.31;95905.47;4971265;28;20109;-65
2021/06/03 10:05:19;;;;;;;27.65;22.35;;;;;;;26.10;37.77;95909.03;4969743;28;20023;-65
2021/06/03 10:07:58;;;;;;;28.83;24.52;;;;;;;25.56;38.33;95909.97;4970039;28;20094;-64
2021/06/03 10:10:29;;;;;;;54.33;40.03;;;;;;;25.28;38.97;95902.41;4969642;28;20448;-66
2021/06/03 10:12:55;;;;;;;63.10;51.47;;;;;;;25.44;38.88;95910.25;4969458;28;20035;-63
2021/06/03 10:15:20;;;;;;;45.72;35.55;;;;;;;25.53;38.49;95905.25;4972688;28;20109;-69
2021/06/03 10:17:54;;;;;;;67.35;51.75;;;;;;;26.19;38.74;95908.63;4972541;28;20077;-67
2021/06/03 10:20:34;;;;;;;68.63;50.42;;;;;;;26.07;37.29;95900.84;4985153;28;20046;-66
2021/06/03 10:23:00;;;;;;;7.47;6.80;;;;;;;25.54;38.56;95885.03;4969537;28;20041;-66
2021/06/03 10:25:28;;;;;;;7.68;7.07;;;;;;;25.54;38.58;95894.00;4968274;28;20042;-66
2021/06/03 10:27:58;;;;;;;8.27;7.50;;;;;;;24.92;39.00;95906.81;4969969;28;20050;-71
2021/06/03 10:30:25;;;;;;;3.23;3.03;;;;;;;24.74;39.16;95893.06;4970801;28;20078;-63
2021/06/03 10:32:54;;;;;;;27.10;23.15;;;;;;;25.31;39.49;95898.94;4970299;28;20270;-65
2021/06/03 10:35:23;;;;;;;4.05;3.75;;;;;;;25.40;38.64;95894.69;4974032;28;20075;-65
2021/06/03 10:37:49;;;;;;;5.10;3.85;;;;;;;25.12;39.45;95902.69;4972149;28;20589;-67
2021/06/03 10:40:21;;;;;;;6.00;3.72;;;;;;;24.88;39.63;95893.97;4973122;28;20053;-64
2021/06/03 10:42:46;;;;;;;3.88;3.58;;;;;;;25.21;38.86;95899.66;4971500;28;20043;-63
2021/06/03 10:45:15;;;;;;;4.72;3.03;;;;;;;25.51;40.44;95893.97;4973783;28;20038;-63
2021/06/03 10:47:41;;;;;;;2.80;2.60;;;;;;;25.73;38.68;95901.06;4974983;28;20015;-63
2021/06/03 10:50:11;;;;;;;5.53;3.22;;;;;;;25.31;38.00;95893.47;4973222;28;20501;-63
2021/06/03 10:52:37;;;;;;;3.70;3.40;;;;;;;25.81;37.04;95901.91;4972581;28;20050;-63
2021/06/03 10:55:06;;;;;;;9.98;9.13;;;;;;;26.02;39.45;95888.34;4971627;28;20035;-63
2021/06/03 10:57:48;;;;;;;5.57;3.45;;;;;;;25.69;37.59;95897.53;4973021;28;20500;-63
2021/06/03 11:00:32;;;;;;;3.55;3.33;;;;;;;25.12;38.99;95891.81;4973209;28;20130;-63
2021/06/03 11:03:01;;;;;;;4.63;3.65;;;;;;;25.66;38.30;95896.38;4972474;28;20569;-63
2021/06/03 11:05:36;;;;;;;3.38;3.17;;;;;;;25.64;36.46;95896.00;4974950;28;20023;-63
2021/06/03 11:08:30;;;;;;;3.60;3.40;;;;;;;26.57;37.28;95882.63;4972784;28;20038;-64
2021/06/03 11:11:15;;;;;;;4.72;4.28;;;;;;;27.03;36.89;95891.97;4972983;28;20121;-64
2021/06/03 11:13:46;;;;;;;6.47;5.80;;;;;;;27.31;36.71;95882.97;4961784;28;20462;-63
2021/06/03 11:16:35;;;;;;;4.90;4.47;;;;;;;27.71;35.85;95878.97;4972390;28;20066;-63
2021/06/03 11:19:00;;;;;;;5.20;4.75;;;;;;;28.01;35.05;95877.66;4964653;28;20042;-63
2021/06/03 11:21:35;;;;;;;4.32;4.03;;;;;;;28.15;34.33;95874.81;4972732;28;20045;-64
2021/06/03 11:24:16;;;;;;;3.58;3.28;;;;;;;28.43;33.39;95860.97;4972244;28;20097;-63
2021/06/03 11:26:41;;;;;;;2.72;2.53;;;;;;;27.31;34.74;95861.88;4974389;28;20053;-63
2021/06/03 11:29:28;;;;;;;3.20;2.90;;;;;;;27.39;34.51;95868.13;4972571;28;20493;-62
2021/06/03 11:32:02;;;;;;;3.33;2.85;;;;;;;26.29;36.69;95869.69;4979588;28;20050;-62
2021/06/03 11:34:43;;;;;;;3.30;3.00;;;;;;;26.75;36.09;95868.97;4971888;28;20046;-62
2021/06/03 11:37:15;;;;;;;3.90;3.00;;;;;;;26.49;35.91;95872.09;4972374;28;20102;-61
2021/06/03 11:39:47;;;;;;;4.43;2.60;;;;;;;26.66;35.57;95874.81;4970955;28;20133;-62
2021/06/03 11:42:15;;;;;;;2.92;2.72;;;;;;;26.26;35.71;95872.41;4971754;28;20400;-62